createdAt,value
2023-05-15T00:00:06.589Z,42.58
2023-05-15T00:02:36.887Z,42.62
2023-05-15T00:05:08.707Z,42.65
2023-05-15T00:07:37.547Z,42.74
2023-05-15T00:10:07.779Z,43.28
2023-05-15T00:12:35.654Z,43.11
2023-05-15T00:15:03.688Z,43.48
2023-05-15T00:17:31.546Z,43.91
2023-05-15T00:20:00.540Z,43.95
2023-05-15T00:22:28.526Z,44.20
2023-05-15T00:24:56.335Z,44.94
2023-05-15T00:27:26.620Z,45.33
2023-05-15T00:29:54.548Z,45.70
2023-05-15T00:32:22.452Z,46.17
2023-05-15T00:34:50.417Z,46.25
2023-05-15T00:37:18.588Z,46.45
2023-05-15T00:39:46.432Z,46.88
2023-05-15T00:42:16.303Z,47.04
2023-05-15T00:44:46.658Z,47.43
2023-05-15T00:47:17.079Z,47.71
2023-05-15T00:49:46.163Z,48.19
2023-05-15T00:52:15.317Z,48.42
2023-05-15T00:54:43.191Z,48.88
2023-05-15T00:57:12.605Z,49.47
2023-05-15T00:59:41.131Z,49.86
2023-05-15T01:02:10.579Z,50.39
2023-05-15T01:04:38.584Z,50.36
2023-05-15T01:07:06.403Z,51.07
2023-05-15T01:09:35.553Z,51.45
2023-05-15T01:12:04.038Z,52.01
2023-05-15T01:14:31.890Z,52.50
2023-05-15T01:16:59.765Z,52.78
2023-05-15T01:19:29.250Z,52.85
2023-05-15T01:22:24.561Z,53.25
2023-05-15T01:25:13.080Z,53.70
2023-05-15T01:27:49.877Z,53.34
2023-05-15T01:30:23.372Z,53.66
2023-05-15T01:33:01.239Z,54.25
2023-05-15T01:35:35.340Z,54.45
2023-05-15T01:38:13.827Z,54.70
2023-05-15T01:40:43.072Z,55.24
2023-05-15T01:43:19.540Z,55.89
2023-05-15T01:45:47.619Z,55.84
2023-05-15T01:48:16.538Z,56.59
2023-05-15T01:50:46.744Z,56.74
2023-05-15T01:53:16.305Z,57.00
2023-05-15T01:55:45.060Z,57.10
2023-05-15T01:58:15.368Z,57.73
2023-05-15T02:00:44.019Z,57.80
2023-05-15T02:03:12.529Z,58.25
2023-05-15T02:05:41.430Z,58.42
2023-05-15T02:08:10.648Z,58.74
2023-05-15T02:10:38.561Z,58.38
2023-05-15T02:13:07.357Z,58.38
2023-05-15T02:15:38.010Z,58.03
2023-05-15T02:18:06.730Z,58.03
2023-05-15T02:20:34.671Z,57.61
2023-05-15T02:23:02.528Z,57.64
2023-05-15T02:25:39.817Z,57.83
2023-05-15T02:28:18.388Z,58.10
2023-05-15T02:30:56.193Z,57.83
2023-05-15T02:33:31.339Z,58.00
2023-05-15T02:36:03.120Z,57.89
2023-05-15T02:38:36.757Z,58.51
2023-05-15T02:41:07.260Z,58.48
2023-05-15T02:43:37.369Z,58.76
2023-05-15T02:46:11.623Z,59.22
2023-05-15T02:48:42.659Z,59.38
2023-05-15T02:51:12.283Z,59.45
2023-05-15T02:53:41.472Z,59.71
2023-05-15T02:56:12.155Z,59.79
2023-05-15T02:58:41.098Z,59.73
2023-05-15T03:01:10.382Z,59.72
2023-05-15T03:03:38.568Z,60.08
2023-05-15T03:06:06.732Z,59.95
2023-05-15T03:08:34.980Z,59.91
2023-05-15T03:11:02.836Z,60.01
2023-05-15T03:13:30.846Z,60.02
2023-05-15T03:15:58.680Z,60.45
2023-05-15T03:18:28.200Z,60.76
2023-05-15T03:20:58.487Z,60.51
2023-05-15T03:23:26.524Z,60.82
2023-05-15T03:25:55.544Z,60.91
2023-05-15T03:28:23.453Z,61.22
2023-05-15T03:30:51.287Z,61.43
2023-05-15T03:33:20.652Z,61.48
2023-05-15T03:35:52.052Z,61.66
2023-05-15T03:38:20.751Z,61.67
2023-05-15T03:40:51.090Z,61.73
2023-05-15T03:43:19.395Z,61.57
2023-05-15T03:45:47.269Z,61.79
2023-05-15T03:48:15.277Z,61.53
2023-05-15T03:50:45.147Z,61.64
2023-05-15T03:53:14.361Z,61.07
2023-05-15T03:55:42.345Z,61.13
2023-05-15T03:58:10.253Z,60.58
2023-05-15T04:00:38.272Z,60.83
2023-05-15T04:03:06.407Z,60.85
2023-05-15T04:05:34.354Z,60.40
2023-05-15T04:08:02.266Z,60.64
2023-05-15T04:10:32.465Z,60.62
2023-05-15T04:13:01.659Z,60.30
2023-05-15T04:15:29.866Z,60.51
2023-05-15T04:18:00.213Z,60.43
2023-05-15T04:20:30.743Z,60.56
2023-05-15T04:22:58.654Z,60.71
2023-05-15T04:25:27.338Z,60.20
2023-05-15T04:27:56.759Z,60.48
2023-05-15T04:30:24.780Z,60.38
2023-05-15T04:32:53.045Z,60.51
2023-05-15T04:35:20.908Z,60.73
2023-05-15T04:37:48.891Z,60.73
2023-05-15T04:40:17.086Z,60.23
2023-05-15T04:42:45.043Z,60.62
2023-05-15T04:45:14.845Z,60.72
2023-05-15T04:47:42.873Z,60.47
2023-05-15T04:50:11.359Z,60.62
2023-05-15T04:52:39.210Z,60.76
2023-05-15T04:55:08.254Z,60.46
2023-05-15T04:57:36.120Z,60.92
2023-05-15T05:00:05.914Z,60.80
2023-05-15T05:02:35.236Z,61.08
2023-05-15T05:05:03.149Z,60.90
2023-05-15T05:07:31.008Z,61.22
2023-05-15T05:09:58.979Z,61.45
2023-05-15T05:12:28.030Z,61.10
2023-05-15T05:14:56.807Z,61.36
2023-05-15T05:17:24.971Z,61.33
2023-05-15T05:19:54.457Z,61.57
2023-05-15T05:22:22.307Z,61.42
2023-05-15T05:24:50.269Z,61.73
2023-05-15T05:27:18.105Z,61.59
2023-05-15T05:29:47.430Z,61.48
2023-05-15T05:32:15.448Z,61.41
2023-05-15T05:34:43.325Z,61.64
2023-05-15T05:37:12.527Z,62.03
2023-05-15T05:39:40.446Z,61.51
2023-05-15T05:42:08.369Z,61.53
2023-05-15T05:44:36.320Z,61.58
2023-05-15T05:47:04.762Z,61.26
2023-05-15T05:49:32.684Z,61.05
2023-05-15T05:52:06.686Z,61.32
2023-05-15T05:54:36.119Z,61.12
2023-05-15T05:57:04.066Z,61.31
2023-05-15T05:59:32.129Z,61.04
2023-05-15T06:02:00.279Z,60.84
2023-05-15T06:04:28.370Z,60.74
2023-05-15T06:06:57.746Z,60.46
2023-05-15T06:09:25.636Z,60.41
2023-05-15T06:11:54.848Z,59.96
2023-05-15T06:14:23.353Z,59.65
2023-05-15T06:16:51.551Z,59.42
2023-05-15T06:19:19.461Z,59.06
2023-05-15T06:21:47.537Z,58.66
2023-05-15T06:24:15.586Z,58.38
2023-05-15T06:26:43.598Z,57.92
2023-05-15T06:29:16.052Z,57.50
2023-05-15T06:31:43.901Z,57.14
2023-05-15T06:34:11.822Z,56.84
2023-05-15T06:36:39.715Z,56.50
2023-05-15T06:39:10.709Z,55.99
2023-05-15T06:41:39.003Z,55.42
2023-05-15T06:44:06.858Z,54.94
2023-05-15T06:46:36.154Z,54.69
2023-05-15T06:49:04.296Z,54.47
2023-05-15T06:51:32.251Z,54.19
2023-05-15T06:54:00.154Z,53.78
2023-05-15T06:56:28.054Z,53.56
2023-05-15T06:58:56.833Z,53.16
2023-05-15T07:01:24.833Z,53.27
2023-05-15T07:03:54.310Z,52.69
2023-05-15T07:06:22.228Z,52.32
2023-05-15T07:08:50.111Z,52.23
2023-05-15T07:11:18.410Z,52.04
2023-05-15T07:13:46.685Z,51.88
2023-05-15T07:16:14.768Z,51.79
2023-05-15T07:18:45.398Z,51.82
2023-05-15T07:21:14.876Z,51.77
2023-05-15T07:23:42.756Z,52.02
2023-05-15T07:26:16.910Z,52.36
2023-05-15T07:28:48.066Z,52.28
2023-05-15T07:31:16.014Z,52.02
2023-05-15T07:33:43.886Z,52.30
2023-05-15T07:36:13.141Z,51.93
2023-05-15T07:38:42.447Z,52.08
2023-05-15T07:41:10.635Z,51.37
2023-05-15T07:43:40.536Z,50.17
2023-05-15T07:46:08.538Z,48.50
2023-05-15T07:48:36.476Z,47.12
2023-05-15T07:51:04.352Z,45.79
2023-05-15T07:53:33.334Z,44.98
2023-05-15T07:56:02.645Z,43.74
2023-05-15T07:58:30.490Z,43.39
2023-05-15T08:00:58.500Z,42.63
2023-05-15T08:03:26.727Z,41.79
2023-05-15T08:05:54.654Z,41.37
2023-05-15T08:08:23.224Z,40.51
2023-05-15T08:10:51.048Z,39.49
2023-05-15T08:13:20.256Z,38.51
2023-05-15T08:15:48.292Z,38.41
2023-05-15T08:18:16.184Z,37.97
2023-05-15T08:20:44.256Z,37.44
2023-05-15T08:23:15.270Z,37.00
2023-05-15T08:25:43.164Z,36.17
2023-05-15T08:28:12.246Z,35.43
2023-05-15T08:30:42.309Z,33.26
2023-05-15T08:33:10.256Z,32.99
2023-05-15T08:35:38.108Z,32.75
2023-05-15T08:38:06.223Z,32.73
2023-05-15T08:40:38.961Z,32.46
2023-05-15T08:43:15.144Z,32.06
2023-05-15T08:45:44.798Z,32.34
2023-05-15T08:48:15.569Z,32.21
2023-05-15T08:50:44.808Z,32.68
2023-05-15T08:53:13.908Z,32.70
2023-05-15T08:55:42.688Z,32.31
2023-05-15T08:58:11.097Z,32.52
2023-05-15T09:00:39.460Z,31.98
2023-05-15T09:03:15.443Z,31.65
2023-05-15T09:05:43.998Z,31.00
2023-05-15T09:08:12.122Z,30.58
2023-05-15T09:10:40.127Z,30.04
2023-05-15T09:13:09.013Z,30.52
2023-05-15T09:15:37.622Z,30.19
2023-05-15T09:18:07.968Z,29.93
2023-05-15T09:20:41.062Z,29.61
2023-05-15T09:23:24.753Z,29.56
2023-05-15T09:25:55.675Z,29.43
2023-05-15T09:28:29.304Z,29.23
2023-05-15T09:31:01.692Z,29.21
2023-05-15T09:33:31.454Z,29.13
2023-05-15T09:36:00.987Z,29.16
2023-05-15T09:38:29.313Z,29.08
2023-05-15T09:41:03.707Z,28.72
2023-05-15T09:43:35.053Z,29.06
2023-05-15T09:46:02.967Z,28.51
2023-05-15T09:48:32.487Z,27.90
2023-05-15T09:51:05.900Z,27.73
2023-05-15T09:53:35.866Z,27.43
2023-05-15T09:56:06.576Z,27.03
2023-05-15T09:58:36.466Z,26.48
2023-05-15T10:01:11.663Z,26.60
2023-05-15T10:03:44.028Z,25.79
2023-05-15T10:06:19.768Z,25.64
2023-05-15T10:08:52.642Z,25.38
2023-05-15T10:11:21.031Z,25.07
2023-05-15T10:13:49.227Z,24.92
2023-05-15T10:16:22.062Z,25.46
2023-05-15T10:18:52.489Z,25.23
2023-05-15T10:21:23.574Z,26.24
2023-05-15T10:23:52.123Z,26.73
2023-05-15T10:26:24.940Z,26.88
2023-05-15T10:28:54.136Z,27.02
2023-05-15T10:31:23.252Z,26.83
2023-05-15T10:33:53.895Z,27.24
2023-05-15T10:36:24.668Z,27.19
2023-05-15T10:38:53.217Z,27.80
2023-05-15T10:41:22.643Z,27.76
2023-05-15T10:43:54.638Z,28.00
2023-05-15T10:46:22.997Z,28.23
2023-05-15T10:48:51.801Z,28.23
2023-05-15T10:51:25.803Z,29.02
2023-05-15T10:53:55.252Z,29.21
2023-05-15T10:56:28.135Z,29.58
2023-05-15T10:58:56.737Z,29.69
2023-05-15T11:01:29.751Z,30.03
2023-05-15T11:04:08.830Z,30.58
2023-05-15T11:06:37.568Z,30.48
2023-05-15T11:09:40.829Z,30.97
2023-05-15T11:12:12.941Z,31.13
2023-05-15T11:14:43.223Z,31.39
2023-05-15T11:17:12.384Z,31.40
2023-05-15T11:19:59.039Z,31.47
2023-05-15T11:22:32.994Z,31.25
2023-05-15T11:25:03.554Z,31.13
2023-05-15T11:27:32.816Z,31.32
2023-05-15T11:30:15.104Z,30.97
2023-05-15T11:32:50.187Z,31.33
2023-05-15T11:35:24.367Z,31.06
2023-05-15T11:37:54.242Z,31.12
2023-05-15T11:40:25.921Z,30.89
2023-05-15T11:43:05.714Z,31.00
2023-05-15T11:45:35.991Z,30.60
2023-05-15T11:48:06.347Z,30.48
2023-05-15T11:50:36.179Z,30.40
2023-05-15T11:53:06.444Z,30.21
2023-05-15T11:55:37.187Z,30.09
2023-05-15T11:58:11.505Z,30.24
2023-05-15T12:00:41.281Z,30.00
2023-05-15T12:03:16.597Z,29.77
2023-05-15T12:05:57.364Z,29.94
2023-05-15T12:08:31.813Z,29.82
2023-05-15T12:11:01.759Z,30.00
2023-05-15T12:13:30.524Z,29.98
2023-05-15T12:15:58.646Z,29.36
2023-05-15T12:18:26.789Z,29.00
2023-05-15T12:20:56.148Z,28.37
2023-05-15T12:23:25.619Z,28.41
2023-05-15T12:25:58.415Z,28.37
2023-05-15T12:28:29.785Z,28.30
2023-05-15T12:30:58.524Z,28.71
2023-05-15T12:33:26.614Z,28.82
2023-05-15T12:36:00.873Z,29.22
2023-05-15T12:38:30.545Z,28.98
2023-05-15T12:40:59.252Z,28.76
2023-05-15T12:43:28.587Z,28.91
2023-05-15T12:45:57.353Z,28.40
2023-05-15T12:48:30.804Z,28.78
2023-05-15T12:51:06.039Z,28.53
2023-05-15T12:53:35.379Z,28.10
2023-05-15T12:56:04.794Z,28.14
2023-05-15T12:58:35.004Z,27.88
2023-05-15T13:01:04.547Z,27.93
2023-05-15T13:03:33.338Z,28.10
2023-05-15T13:06:03.225Z,28.35
2023-05-15T13:08:31.572Z,28.51
2023-05-15T13:11:00.906Z,28.31
2023-05-15T13:13:48.769Z,28.76
2023-05-15T13:16:26.379Z,29.03
2023-05-15T13:18:54.845Z,28.84
2023-05-15T13:21:22.839Z,28.96
2023-05-15T13:23:53.049Z,29.04
2023-05-15T13:26:20.952Z,28.94
2023-05-15T13:28:50.345Z,29.30
2023-05-15T13:31:18.331Z,28.62
2023-05-15T13:33:46.318Z,28.67
2023-05-15T13:36:14.272Z,28.64
2023-05-15T13:38:42.226Z,28.56
2023-05-15T13:41:10.460Z,28.63
2023-05-15T13:43:38.368Z,28.91
2023-05-15T13:46:09.967Z,28.84
2023-05-15T13:48:37.852Z,28.74
2023-05-15T13:51:06.390Z,28.24
2023-05-15T13:53:34.289Z,28.69
2023-05-15T13:56:02.392Z,28.79
2023-05-15T13:58:30.581Z,28.53
2023-05-15T14:00:58.487Z,28.51
2023-05-15T14:03:27.895Z,28.52
2023-05-15T14:05:55.952Z,28.45
2023-05-15T14:08:23.773Z,28.28
2023-05-15T14:10:51.641Z,28.25
2023-05-15T14:13:19.942Z,27.56
2023-05-15T14:15:47.788Z,26.95
2023-05-15T14:18:15.724Z,26.06
2023-05-15T14:20:45.117Z,25.94
2023-05-15T14:23:13.010Z,26.00
2023-05-15T14:25:42.241Z,26.09
2023-05-15T14:28:10.150Z,26.26
2023-05-15T14:30:38.025Z,26.50
2023-05-15T14:33:05.957Z,26.76
2023-05-15T14:35:34.090Z,26.72
2023-05-15T14:38:03.427Z,26.38
2023-05-15T14:40:31.279Z,26.36
2023-05-15T14:42:59.224Z,25.78
2023-05-15T14:45:27.545Z,24.73
2023-05-15T14:47:55.498Z,23.96
2023-05-15T14:50:23.709Z,23.58
2023-05-15T14:52:51.698Z,24.13
2023-05-15T14:55:22.112Z,24.38
2023-05-15T14:57:50.848Z,24.63
2023-05-15T15:00:19.461Z,25.03
2023-05-15T15:02:49.841Z,25.55
2023-05-15T15:05:18.699Z,25.79
2023-05-15T15:08:00.224Z,25.41
2023-05-15T15:10:30.163Z,25.15
2023-05-15T15:12:58.386Z,24.38
2023-05-15T15:15:26.835Z,24.33
2023-05-15T15:17:56.211Z,24.14
2023-05-15T15:20:25.402Z,24.36
2023-05-15T15:22:53.993Z,24.61
2023-05-15T15:25:22.663Z,24.95
2023-05-15T15:27:52.416Z,25.29
2023-05-15T15:30:20.814Z,25.68
2023-05-15T15:32:48.814Z,25.33
2023-05-15T15:35:16.714Z,25.64
2023-05-15T15:37:44.590Z,25.11
2023-05-15T15:40:13.034Z,25.57
2023-05-15T15:42:40.866Z,25.42
2023-05-15T15:45:10.593Z,25.12
2023-05-15T15:47:38.601Z,25.25
2023-05-15T15:50:07.245Z,25.14
2023-05-15T15:52:35.160Z,24.94
2023-05-15T15:55:03.944Z,24.75
2023-05-15T15:57:31.919Z,24.84
2023-05-15T15:59:59.834Z,24.69
2023-05-15T16:02:29.453Z,24.56
2023-05-15T16:04:57.340Z,24.45
2023-05-15T16:07:25.179Z,24.23
2023-05-15T16:10:04.194Z,24.38
2023-05-15T16:12:40.015Z,24.05
2023-05-15T16:17:42.812Z,23.93
2023-05-15T16:20:11.331Z,23.81
2023-05-15T16:22:41.713Z,24.13
2023-05-15T16:25:10.211Z,24.76
2023-05-15T16:27:38.309Z,25.09
2023-05-15T16:30:07.092Z,25.20
2023-05-15T16:32:35.140Z,25.53
2023-05-15T16:35:04.987Z,25.72
2023-05-15T16:37:32.820Z,25.68
2023-05-15T16:40:00.857Z,26.16
2023-05-15T16:42:28.815Z,26.55
2023-05-15T16:44:56.652Z,26.94
2023-05-15T16:47:24.553Z,27.31
2023-05-15T16:49:52.494Z,27.46
2023-05-15T16:52:22.298Z,27.96
2023-05-15T16:54:50.128Z,28.36
2023-05-15T16:57:17.962Z,29.72
2023-05-15T16:59:46.093Z,29.74
2023-05-15T17:02:14.122Z,30.06
2023-05-15T17:04:42.047Z,29.95
2023-05-15T17:07:10.361Z,30.71
2023-05-15T17:09:40.692Z,30.62
2023-05-15T17:12:08.848Z,30.80
2023-05-15T17:14:36.788Z,30.83
2023-05-15T17:17:04.851Z,31.07
2023-05-15T17:19:34.466Z,31.49
2023-05-15T17:22:02.518Z,31.79
2023-05-15T17:24:42.339Z,32.16
2023-05-15T17:27:20.581Z,32.37
2023-05-15T17:29:49.759Z,32.64
2023-05-15T17:32:18.459Z,32.69
2023-05-15T17:34:46.462Z,32.81
2023-05-15T17:37:15.001Z,33.08
2023-05-15T17:39:43.231Z,33.29
2023-05-15T17:42:11.241Z,33.57
2023-05-15T17:44:40.983Z,33.77
2023-05-15T17:47:10.240Z,33.70
2023-05-15T17:49:38.704Z,33.91
2023-05-15T17:52:07.216Z,33.92
2023-05-15T17:54:35.096Z,34.08
2023-05-15T17:57:03.147Z,34.40
2023-05-15T17:59:31.217Z,34.39
2023-05-15T18:02:00.682Z,34.76
2023-05-15T18:04:30.587Z,34.84
2023-05-15T18:06:58.424Z,34.93
2023-05-15T18:09:26.656Z,34.90
2023-05-15T18:11:54.567Z,34.96
2023-05-15T18:14:22.394Z,35.10
2023-05-15T18:16:50.232Z,35.19
2023-05-15T18:19:19.691Z,35.57
2023-05-15T18:21:47.547Z,35.81
2023-05-15T18:24:15.414Z,36.06
2023-05-15T18:26:43.622Z,36.36
2023-05-15T18:29:11.595Z,36.53
2023-05-15T18:31:39.665Z,37.01
2023-05-15T18:34:07.691Z,37.23
2023-05-15T18:36:37.005Z,38.01
2023-05-15T18:39:07.312Z,38.16
2023-05-15T18:41:35.208Z,38.52
2023-05-15T18:44:03.100Z,38.94
2023-05-15T18:46:34.186Z,39.40
2023-05-15T18:49:04.941Z,39.75
2023-05-15T18:51:32.754Z,39.88
2023-05-15T18:54:02.020Z,40.30
2023-05-15T18:56:31.178Z,40.61
2023-05-15T18:58:59.009Z,40.74
2023-05-15T19:01:26.974Z,41.07
2023-05-15T19:03:54.888Z,41.47
2023-05-15T19:06:22.772Z,41.54
2023-05-15T19:08:50.667Z,41.95
2023-05-15T19:11:19.933Z,42.30
2023-05-15T19:13:47.810Z,42.51
2023-05-15T19:16:15.728Z,42.68
2023-05-15T19:18:44.037Z,43.08
2023-05-15T19:21:12.045Z,43.18
2023-05-15T19:23:39.881Z,43.26
2023-05-15T19:26:07.782Z,43.53
2023-05-15T19:28:37.651Z,44.02
2023-05-15T19:31:08.202Z,44.21
2023-05-15T19:33:39.838Z,44.43
2023-05-15T19:36:07.930Z,44.69
2023-05-15T19:38:35.769Z,44.81
2023-05-15T19:41:04.205Z,45.01
2023-05-15T19:43:35.834Z,45.25
2023-05-15T19:46:05.526Z,45.42
2023-05-15T19:48:33.749Z,45.40
2023-05-15T19:51:01.580Z,45.53
2023-05-15T19:53:29.553Z,45.62
2023-05-15T19:55:58.541Z,45.87
2023-05-15T19:58:26.404Z,45.78
2023-05-15T20:00:54.996Z,45.96
2023-05-15T20:03:25.909Z,46.06
2023-05-15T20:05:54.022Z,46.18
2023-05-15T20:08:22.113Z,46.33
2023-05-15T20:10:52.683Z,46.59
2023-05-15T20:13:20.929Z,46.74
2023-05-15T20:15:54.843Z,46.90
2023-05-15T20:18:24.386Z,47.05
2023-05-15T20:20:53.476Z,47.21
2023-05-15T20:23:22.048Z,47.46
2023-05-15T20:25:51.367Z,47.62
2023-05-15T20:28:19.555Z,47.85
2023-05-15T20:30:47.732Z,47.99
2023-05-15T20:33:15.793Z,48.06
2023-05-15T20:35:45.515Z,48.40
2023-05-15T20:38:13.884Z,48.56
2023-05-15T20:40:41.704Z,48.87
2023-05-15T20:43:09.677Z,49.10
2023-05-15T20:45:37.545Z,49.50
2023-05-15T20:48:06.800Z,49.74
2023-05-15T20:50:34.715Z,50.13
2023-05-15T20:53:04.189Z,50.68
2023-05-15T20:55:32.060Z,50.62
2023-05-15T20:57:59.959Z,51.00
2023-05-15T21:00:28.343Z,51.24
2023-05-15T21:02:56.387Z,51.63
2023-05-15T21:05:24.411Z,51.82
2023-05-15T21:07:52.274Z,51.98
2023-05-15T21:10:21.480Z,52.37
2023-05-15T21:12:49.452Z,52.50
2023-05-15T21:15:17.543Z,52.76
2023-05-15T21:17:45.887Z,53.04
2023-05-15T21:20:14.066Z,52.81
2023-05-15T21:22:41.958Z,53.20
2023-05-15T21:25:11.268Z,53.11
2023-05-15T21:27:42.091Z,53.55
2023-05-15T21:30:11.113Z,53.59
2023-05-15T21:32:39.031Z,53.69
2023-05-15T21:35:07.528Z,54.03
2023-05-15T21:37:35.393Z,54.05
2023-05-15T21:40:03.270Z,54.33
2023-05-15T21:42:32.292Z,54.49
2023-05-15T21:45:02.120Z,54.68
2023-05-15T21:47:30.773Z,54.99
2023-05-15T21:49:58.715Z,55.21
2023-05-15T21:52:26.538Z,55.21
2023-05-15T21:54:54.918Z,55.67
2023-05-15T21:57:23.404Z,55.85
2023-05-15T21:59:51.299Z,55.95
2023-05-15T22:02:20.535Z,56.25
2023-05-15T22:04:48.431Z,56.16
2023-05-15T22:07:17.587Z,56.43
2023-05-15T22:09:45.640Z,56.83
2023-05-15T22:12:26.720Z,57.05
2023-05-15T22:14:58.936Z,57.20
2023-05-15T22:17:30.525Z,57.59
2023-05-15T22:20:07.053Z,57.69
2023-05-15T22:22:36.424Z,57.69
2023-05-15T22:25:04.505Z,57.92
2023-05-15T22:27:32.822Z,58.30
2023-05-15T22:30:00.882Z,58.43
2023-05-15T22:32:30.119Z,58.87
2023-05-15T22:34:58.088Z,58.97
2023-05-15T22:37:28.225Z,59.27
2023-05-15T22:39:56.050Z,59.71
2023-05-15T22:42:24.067Z,59.85
2023-05-15T22:44:54.044Z,60.00
2023-05-15T22:47:22.050Z,60.15
2023-05-15T22:49:51.380Z,60.55
2023-05-15T22:52:19.715Z,60.92
2023-05-15T22:55:21.433Z,61.75
2023-05-15T22:57:49.558Z,60.98
2023-05-15T23:00:19.167Z,61.52
2023-05-15T23:02:47.190Z,61.70
2023-05-15T23:05:16.470Z,62.03
2023-05-15T23:08:43.695Z,62.82
2023-05-15T23:11:11.713Z,62.00
2023-05-15T23:13:39.534Z,62.49
2023-05-15T23:16:07.798Z,62.99
2023-05-15T23:18:35.771Z,62.92
2023-05-15T23:21:05.097Z,62.99
2023-05-15T23:23:32.947Z,63.10
2023-05-15T23:26:01.468Z,63.09
2023-05-15T23:28:29.503Z,63.18
2023-05-15T23:30:57.485Z,63.52
2023-05-15T23:33:25.608Z,63.27
2023-05-15T23:35:53.451Z,63.50
2023-05-15T23:38:23.641Z,63.29
2023-05-15T23:40:52.656Z,63.36
2023-05-15T23:43:20.699Z,63.32
2023-05-15T23:45:48.547Z,63.27
2023-05-15T23:48:16.673Z,63.26
2023-05-15T23:50:44.848Z,63.44
2023-05-15T23:53:12.712Z,63.34
2023-05-15T23:55:42.001Z,63.83
2023-05-15T23:58:09.886Z,63.80
